sensor_id;sensor_type;location;lat;lon;timestamp;temperature;humidity
24410;DHT22;12543;53.364;-1.504;2023-04-24T00:01:08;7.90;99.90
24410;DHT22;12543;53.364;-1.504;2023-04-24T00:03:36;7.80;99.90
24410;DHT22;12543;53.364;-1.504;2023-04-24T00:06:05;7.80;99.90
24410;DHT22;12543;53.364;-1.504;2023-04-24T00:08:35;7.70;99.90
24410;DHT22;12543;53.364;-1.504;2023-04-24T00:11:02;7.60;99.90
24410;DHT22;12543;53.364;-1.504;2023-04-24T00:13:29;7.50;99.90
24410;DHT22;12543;53.364;-1.504;2023-04-24T00:15:56;7.40;99.90
24410;DHT22;12543;53.364;-1.504;2023-04-24T00:18:23;7.40;99.90
24410;DHT22;12543;53.364;-1.504;2023-04-24T00:20:50;7.40;99.90
24410;DHT22;12543;53.364;-1.504;2023-04-24T00:23:17;7.30;99.90
24410;DHT22;12543;53.364;-1.504;2023-04-24T00:25:44;7.30;99.90
24410;DHT22;12543;53.364;-1.504;2023-04-24T00:28:11;7.30;99.90
24410;DHT22;12543;53.364;-1.504;2023-04-24T00:30:39;7.30;99.90
24410;DHT22;12543;53.364;-1.504;2023-04-24T00:33:07;7.20;99.90
24410;DHT22;12543;53.364;-1.504;2023-04-24T00:35:34;7.20;99.90
24410;DHT22;12543;53.364;-1.504;2023-04-24T00:38:01;7.20;99.90
24410;DHT22;12543;53.364;-1.504;2023-04-24T00:40:28;7.10;99.90
24410;DHT22;12543;53.364;-1.504;2023-04-24T00:42:55;7.10;99.90
24410;DHT22;12543;53.364;-1.504;2023-04-24T00:45:23;7.10;99.90
24410;DHT22;12543;53.364;-1.504;2023-04-24T00:47:49;7.10;99.90
24410;DHT22;12543;53.364;-1.504;2023-04-24T00:50:20;7.00;99.90
24410;DHT22;12543;53.364;-1.504;2023-04-24T00:52:48;7.00;99.90
24410;DHT22;12543;53.364;-1.504;2023-04-24T00:55:15;6.90;99.90
24410;DHT22;12543;53.364;-1.504;2023-04-24T00:57:43;6.90;99.90
24410;DHT22;12543;53.364;-1.504;2023-04-24T01:00:10;6.90;99.90
24410;DHT22;12543;53.364;-1.504;2023-04-24T01:02:43;6.80;99.90
24410;DHT22;12543;53.364;-1.504;2023-04-24T01:05:14;6.80;99.90
24410;DHT22;12543;53.364;-1.504;2023-04-24T01:07:43;6.80;99.90
24410;DHT22;12543;53.364;-1.504;2023-04-24T01:10:12;6.80;99.90
24410;DHT22;12543;53.364;-1.504;2023-04-24T01:12:40;6.80;99.90
24410;DHT22;12543;53.364;-1.504;2023-04-24T01:15:07;6.70;99.90
24410;DHT22;12543;53.364;-1.504;2023-04-24T01:17:34;6.70;99.90
24410;DHT22;12543;53.364;-1.504;2023-04-24T01:20:01;6.70;99.90
24410;DHT22;12543;53.364;-1.504;2023-04-24T01:22:33;6.70;99.90
24410;DHT22;12543;53.364;-1.504;2023-04-24T01:25:00;6.60;99.90
24410;DHT22;12543;53.364;-1.504;2023-04-24T01:27:29;6.70;99.90
24410;DHT22;12543;53.364;-1.504;2023-04-24T01:29:56;6.70;99.90
24410;DHT22;12543;53.364;-1.504;2023-04-24T01:32:23;6.60;99.90
24410;DHT22;12543;53.364;-1.504;2023-04-24T01:34:50;6.60;99.90
24410;DHT22;12543;53.364;-1.504;2023-04-24T01:37:17;6.60;99.90
24410;DHT22;12543;53.364;-1.504;2023-04-24T01:39:44;6.60;99.90
24410;DHT22;12543;53.364;-1.504;2023-04-24T01:42:11;6.50;99.90
24410;DHT22;12543;53.364;-1.504;2023-04-24T01:44:39;6.50;99.90
24410;DHT22;12543;53.364;-1.504;2023-04-24T01:47:06;6.50;99.90
24410;DHT22;12543;53.364;-1.504;2023-04-24T01:49:33;6.50;99.90
24410;DHT22;12543;53.364;-1.504;2023-04-24T01:52:00;6.50;99.90
24410;DHT22;12543;53.364;-1.504;2023-04-24T01:54:30;6.40;99.90
24410;DHT22;12543;53.364;-1.504;2023-04-24T01:56:57;6.40;99.90
24410;DHT22;12543;53.364;-1.504;2023-04-24T01:59:23;6.30;99.90
24410;DHT22;12543;53.364;-1.504;2023-04-24T02:01:51;6.30;99.90
24410;DHT22;12543;53.364;-1.504;2023-04-24T02:04:18;6.30;99.90
24410;DHT22;12543;53.364;-1.504;2023-04-24T02:06:46;6.30;99.90
24410;DHT22;12543;53.364;-1.504;2023-04-24T02:09:13;6.20;99.90
24410;DHT22;12543;53.364;-1.504;2023-04-24T02:11:40;6.30;99.90
24410;DHT22;12543;53.364;-1.504;2023-04-24T02:14:07;6.20;99.90
24410;DHT22;12543;53.364;-1.504;2023-04-24T02:16:34;6.20;99.90
24410;DHT22;12543;53.364;-1.504;2023-04-24T02:19:02;6.20;99.90
24410;DHT22;12543;53.364;-1.504;2023-04-24T02:21:30;6.20;99.90
24410;DHT22;12543;53.364;-1.504;2023-04-24T02:23:57;6.20;99.90
24410;DHT22;12543;53.364;-1.504;2023-04-24T02:26:24;6.10;99.90
24410;DHT22;12543;53.364;-1.504;2023-04-24T02:28:52;6.10;99.90
24410;DHT22;12543;53.364;-1.504;2023-04-24T02:31:20;6.10;99.90
24410;DHT22;12543;53.364;-1.504;2023-04-24T02:33:47;6.10;99.90
24410;DHT22;12543;53.364;-1.504;2023-04-24T02:36:14;6.10;99.90
24410;DHT22;12543;53.364;-1.504;2023-04-24T02:38:41;6.00;99.90
24410;DHT22;12543;53.364;-1.504;2023-04-24T02:41:08;6.00;99.90
24410;DHT22;12543;53.364;-1.504;2023-04-24T02:44:26;6.00;99.90
24410;DHT22;12543;53.364;-1.504;2023-04-24T02:47:21;6.00;99.90
24410;DHT22;12543;53.364;-1.504;2023-04-24T02:50:03;6.00;99.90
24410;DHT22;12543;53.364;-1.504;2023-04-24T02:52:30;6.00;99.90
24410;DHT22;12543;53.364;-1.504;2023-04-24T02:54:57;6.00;99.90
24410;DHT22;12543;53.364;-1.504;2023-04-24T02:57:24;6.00;99.90
24410;DHT22;12543;53.364;-1.504;2023-04-24T02:59:51;6.00;99.90
24410;DHT22;12543;53.364;-1.504;2023-04-24T03:02:18;6.00;99.90
24410;DHT22;12543;53.364;-1.504;2023-04-24T03:04:45;6.00;99.90
24410;DHT22;12543;53.364;-1.504;2023-04-24T03:07:14;6.00;99.90
24410;DHT22;12543;53.364;-1.504;2023-04-24T03:09:42;6.00;99.90
24410;DHT22;12543;53.364;-1.504;2023-04-24T03:12:10;6.00;99.90
24410;DHT22;12543;53.364;-1.504;2023-04-24T03:14:38;6.00;99.90
24410;DHT22;12543;53.364;-1.504;2023-04-24T03:17:05;6.00;99.90
24410;DHT22;12543;53.364;-1.504;2023-04-24T03:19:32;6.00;99.90
24410;DHT22;12543;53.364;-1.504;2023-04-24T03:22:04;6.00;99.90
24410;DHT22;12543;53.364;-1.504;2023-04-24T03:24:32;6.00;99.90
24410;DHT22;12543;53.364;-1.504;2023-04-24T03:26:59;6.00;99.90
24410;DHT22;12543;53.364;-1.504;2023-04-24T03:29:59;6.00;99.90
24410;DHT22;12543;53.364;-1.504;2023-04-24T03:32:44;6.00;99.90
24410;DHT22;12543;53.364;-1.504;2023-04-24T03:35:14;6.00;99.90
24410;DHT22;12543;53.364;-1.504;2023-04-24T03:37:41;6.00;99.90
24410;DHT22;12543;53.364;-1.504;2023-04-24T03:40:34;6.00;99.90
24410;DHT22;12543;53.364;-1.504;2023-04-24T03:43:07;6.00;99.90
24410;DHT22;12543;53.364;-1.504;2023-04-24T03:45:35;6.00;99.90
24410;DHT22;12543;53.364;-1.504;2023-04-24T03:48:02;6.00;99.90
24410;DHT22;12543;53.364;-1.504;2023-04-24T03:50:29;6.00;99.90
24410;DHT22;12543;53.364;-1.504;2023-04-24T03:52:57;6.00;99.90
24410;DHT22;12543;53.364;-1.504;2023-04-24T03:55:34;6.00;99.90
24410;DHT22;12543;53.364;-1.504;2023-04-24T03:58:01;6.00;99.90
24410;DHT22;12543;53.364;-1.504;2023-04-24T04:00:29;6.00;99.90
24410;DHT22;12543;53.364;-1.504;2023-04-24T04:03:38;5.90;99.90
24410;DHT22;12543;53.364;-1.504;2023-04-24T04:06:06;6.00;99.90
24410;DHT22;12543;53.364;-1.504;2023-04-24T04:08:33;5.90;99.90
24410;DHT22;12543;53.364;-1.504;2023-04-24T04:11:01;5.90;99.90
24410;DHT22;12543;53.364;-1.504;2023-04-24T04:13:31;5.90;99.90
24410;DHT22;12543;53.364;-1.504;2023-04-24T04:15:58;5.90;99.90
24410;DHT22;12543;53.364;-1.504;2023-04-24T04:18:26;5.80;99.90
24410;DHT22;12543;53.364;-1.504;2023-04-24T04:20:53;5.80;99.90
24410;DHT22;12543;53.364;-1.504;2023-04-24T04:23:20;5.80;99.90
24410;DHT22;12543;53.364;-1.504;2023-04-24T04:26:02;5.80;99.90
24410;DHT22;12543;53.364;-1.504;2023-04-24T04:28:44;5.80;99.90
24410;DHT22;12543;53.364;-1.504;2023-04-24T04:31:12;5.70;99.90
24410;DHT22;12543;53.364;-1.504;2023-04-24T04:33:39;5.70;99.90
24410;DHT22;12543;53.364;-1.504;2023-04-24T04:36:08;5.70;99.90
24410;DHT22;12543;53.364;-1.504;2023-04-24T04:38:39;5.70;99.90
24410;DHT22;12543;53.364;-1.504;2023-04-24T04:41:28;5.70;99.90
24410;DHT22;12543;53.364;-1.504;2023-04-24T04:43:55;5.70;99.90
24410;DHT22;12543;53.364;-1.504;2023-04-24T04:46:25;5.70;99.90
24410;DHT22;12543;53.364;-1.504;2023-04-24T04:49:06;5.70;99.90
24410;DHT22;12543;53.364;-1.504;2023-04-24T04:51:35;5.70;99.90
24410;DHT22;12543;53.364;-1.504;2023-04-24T04:54:02;5.60;99.90
24410;DHT22;12543;53.364;-1.504;2023-04-24T04:56:29;5.70;99.90
24410;DHT22;12543;53.364;-1.504;2023-04-24T04:58:59;5.70;99.90
24410;DHT22;12543;53.364;-1.504;2023-04-24T05:01:26;5.70;99.90
24410;DHT22;12543;53.364;-1.504;2023-04-24T05:03:55;5.70;99.90
24410;DHT22;12543;53.364;-1.504;2023-04-24T05:06:26;5.70;99.90
24410;DHT22;12543;53.364;-1.504;2023-04-24T05:08:57;5.70;99.90
24410;DHT22;12543;53.364;-1.504;2023-04-24T05:12:11;5.70;99.90
24410;DHT22;12543;53.364;-1.504;2023-04-24T05:14:46;5.70;99.90
24410;DHT22;12543;53.364;-1.504;2023-04-24T05:17:13;5.80;99.90
24410;DHT22;12543;53.364;-1.504;2023-04-24T05:19:41;5.80;99.90
24410;DHT22;12543;53.364;-1.504;2023-04-24T05:22:08;5.80;99.90
24410;DHT22;12543;53.364;-1.504;2023-04-24T05:24:44;5.80;99.90
24410;DHT22;12543;53.364;-1.504;2023-04-24T05:27:30;5.90;99.90
24410;DHT22;12543;53.364;-1.504;2023-04-24T05:29:58;5.90;99.90
24410;DHT22;12543;53.364;-1.504;2023-04-24T05:32:25;5.90;99.90
24410;DHT22;12543;53.364;-1.504;2023-04-24T05:34:56;5.90;99.90
24410;DHT22;12543;53.364;-1.504;2023-04-24T05:37:26;5.90;99.90
24410;DHT22;12543;53.364;-1.504;2023-04-24T05:39:54;6.00;99.90
24410;DHT22;12543;53.364;-1.504;2023-04-24T05:42:22;6.00;99.90
24410;DHT22;12543;53.364;-1.504;2023-04-24T05:44:52;6.00;99.90
24410;DHT22;12543;53.364;-1.504;2023-04-24T05:47:23;6.00;99.90
24410;DHT22;12543;53.364;-1.504;2023-04-24T05:49:51;6.10;99.90
24410;DHT22;12543;53.364;-1.504;2023-04-24T05:52:19;6.10;99.90
24410;DHT22;12543;53.364;-1.504;2023-04-24T05:54:48;6.20;99.90
24410;DHT22;12543;53.364;-1.504;2023-04-24T05:57:20;6.20;99.90
24410;DHT22;12543;53.364;-1.504;2023-04-24T05:59:52;6.20;99.90
24410;DHT22;12543;53.364;-1.504;2023-04-24T06:02:20;6.20;99.90
24410;DHT22;12543;53.364;-1.504;2023-04-24T06:04:47;6.30;99.90
24410;DHT22;12543;53.364;-1.504;2023-04-24T06:07:16;6.30;99.90
24410;DHT22;12543;53.364;-1.504;2023-04-24T06:09:44;6.40;99.90
24410;DHT22;12543;53.364;-1.504;2023-04-24T06:12:11;6.40;99.90
24410;DHT22;12543;53.364;-1.504;2023-04-24T06:14:55;6.50;99.90
24410;DHT22;12543;53.364;-1.504;2023-04-24T06:17:47;6.50;99.90
24410;DHT22;12543;53.364;-1.504;2023-04-24T06:20:15;6.40;99.90
24410;DHT22;12543;53.364;-1.504;2023-04-24T06:22:42;6.50;99.90
24410;DHT22;12543;53.364;-1.504;2023-04-24T06:25:10;6.50;99.90
24410;DHT22;12543;53.364;-1.504;2023-04-24T06:27:37;6.50;99.90
24410;DHT22;12543;53.364;-1.504;2023-04-24T06:30:07;6.60;99.90
24410;DHT22;12543;53.364;-1.504;2023-04-24T06:32:34;6.60;99.90
24410;DHT22;12543;53.364;-1.504;2023-04-24T06:35:02;6.60;99.90
24410;DHT22;12543;53.364;-1.504;2023-04-24T06:37:29;6.60;99.90
24410;DHT22;12543;53.364;-1.504;2023-04-24T06:39:56;6.60;99.90
24410;DHT22;12543;53.364;-1.504;2023-04-24T06:42:23;6.60;99.90
24410;DHT22;12543;53.364;-1.504;2023-04-24T06:44:51;6.60;99.90
24410;DHT22;12543;53.364;-1.504;2023-04-24T06:47:18;6.60;99.90
24410;DHT22;12543;53.364;-1.504;2023-04-24T06:49:45;6.60;99.90
24410;DHT22;12543;53.364;-1.504;2023-04-24T06:52:12;6.60;99.90
24410;DHT22;12543;53.364;-1.504;2023-04-24T06:54:41;6.60;99.90
24410;DHT22;12543;53.364;-1.504;2023-04-24T06:57:10;6.60;99.90
24410;DHT22;12543;53.364;-1.504;2023-04-24T06:59:37;6.60;99.90
24410;DHT22;12543;53.364;-1.504;2023-04-24T07:02:04;6.60;99.90
24410;DHT22;12543;53.364;-1.504;2023-04-24T07:04:31;6.70;99.90
24410;DHT22;12543;53.364;-1.504;2023-04-24T07:06:59;6.70;99.90
24410;DHT22;12543;53.364;-1.504;2023-04-24T07:09:26;6.70;99.90
24410;DHT22;12543;53.364;-1.504;2023-04-24T07:11:53;6.70;99.90
24410;DHT22;12543;53.364;-1.504;2023-04-24T07:14:20;6.80;99.90
24410;DHT22;12543;53.364;-1.504;2023-04-24T07:16:48;6.80;99.90
24410;DHT22;12543;53.364;-1.504;2023-04-24T07:19:15;6.80;99.90
24410;DHT22;12543;53.364;-1.504;2023-04-24T07:21:42;6.80;99.90
24410;DHT22;12543;53.364;-1.504;2023-04-24T07:24:09;6.80;99.90
24410;DHT22;12543;53.364;-1.504;2023-04-24T07:26:37;6.80;99.90
24410;DHT22;12543;53.364;-1.504;2023-04-24T07:29:06;6.90;99.90
24410;DHT22;12543;53.364;-1.504;2023-04-24T07:31:33;6.90;99.90
24410;DHT22;12543;53.364;-1.504;2023-04-24T07:34:00;6.90;99.90
24410;DHT22;12543;53.364;-1.504;2023-04-24T07:36:27;6.90;99.90
24410;DHT22;12543;53.364;-1.504;2023-04-24T07:38:55;7.00;99.90
24410;DHT22;12543;53.364;-1.504;2023-04-24T07:41:23;7.00;99.90
24410;DHT22;12543;53.364;-1.504;2023-04-24T07:43:51;7.00;99.90
24410;DHT22;12543;53.364;-1.504;2023-04-24T07:46:19;7.00;99.90
24410;DHT22;12543;53.364;-1.504;2023-04-24T07:48:46;7.00;99.90
24410;DHT22;12543;53.364;-1.504;2023-04-24T07:51:31;7.10;99.90
24410;DHT22;12543;53.364;-1.504;2023-04-24T07:54:00;7.10;99.90
24410;DHT22;12543;53.364;-1.504;2023-04-24T07:56:27;7.20;99.90
24410;DHT22;12543;53.364;-1.504;2023-04-24T07:58:58;7.20;99.90
24410;DHT22;12543;53.364;-1.504;2023-04-24T08:01:25;7.30;99.90
24410;DHT22;12543;53.364;-1.504;2023-04-24T08:03:52;7.30;99.90
24410;DHT22;12543;53.364;-1.504;2023-04-24T08:06:19;7.30;99.90
24410;DHT22;12543;53.364;-1.504;2023-04-24T08:08:47;7.40;99.90
24410;DHT22;12543;53.364;-1.504;2023-04-24T08:11:13;7.40;99.90
24410;DHT22;12543;53.364;-1.504;2023-04-24T08:13:40;7.50;99.90
24410;DHT22;12543;53.364;-1.504;2023-04-24T08:16:08;7.50;99.90
24410;DHT22;12543;53.364;-1.504;2023-04-24T08:18:35;7.50;99.90
24410;DHT22;12543;53.364;-1.504;2023-04-24T08:21:02;7.60;99.90
24410;DHT22;12543;53.364;-1.504;2023-04-24T08:23:30;7.70;99.90
24410;DHT22;12543;53.364;-1.504;2023-04-24T08:25:56;7.70;99.90
24410;DHT22;12543;53.364;-1.504;2023-04-24T08:28:25;7.80;99.90
24410;DHT22;12543;53.364;-1.504;2023-04-24T08:30:52;7.80;99.90
24410;DHT22;12543;53.364;-1.504;2023-04-24T08:33:22;7.90;99.90
24410;DHT22;12543;53.364;-1.504;2023-04-24T08:35:49;8.00;99.90
24410;DHT22;12543;53.364;-1.504;2023-04-24T08:38:16;8.10;99.90
24410;DHT22;12543;53.364;-1.504;2023-04-24T08:40:43;8.20;99.90
24410;DHT22;12543;53.364;-1.504;2023-04-24T08:43:14;8.30;99.90
24410;DHT22;12543;53.364;-1.504;2023-04-24T08:45:41;8.40;99.90
24410;DHT22;12543;53.364;-1.504;2023-04-24T08:48:08;8.40;99.90
24410;DHT22;12543;53.364;-1.504;2023-04-24T08:50:52;8.50;99.90
24410;DHT22;12543;53.364;-1.504;2023-04-24T08:53:19;8.50;99.90
24410;DHT22;12543;53.364;-1.504;2023-04-24T08:55:47;8.50;99.90
24410;DHT22;12543;53.364;-1.504;2023-04-24T08:58:16;8.50;99.90
24410;DHT22;12543;53.364;-1.504;2023-04-24T09:00:43;8.50;99.90
24410;DHT22;12543;53.364;-1.504;2023-04-24T09:03:14;8.50;99.90
24410;DHT22;12543;53.364;-1.504;2023-04-24T09:05:43;8.40;99.90
24410;DHT22;12543;53.364;-1.504;2023-04-24T09:08:13;8.50;99.90
24410;DHT22;12543;53.364;-1.504;2023-04-24T09:10:40;8.50;99.90
24410;DHT22;12543;53.364;-1.504;2023-04-24T09:13:07;8.60;99.90
24410;DHT22;12543;53.364;-1.504;2023-04-24T09:15:37;8.70;99.90
24410;DHT22;12543;53.364;-1.504;2023-04-24T09:18:04;8.80;99.90
24410;DHT22;12543;53.364;-1.504;2023-04-24T09:20:32;8.90;99.90
24410;DHT22;12543;53.364;-1.504;2023-04-24T09:22:59;8.90;99.90
24410;DHT22;12543;53.364;-1.504;2023-04-24T09:25:33;8.90;99.90
24410;DHT22;12543;53.364;-1.504;2023-04-24T09:28:01;8.90;99.90
24410;DHT22;12543;53.364;-1.504;2023-04-24T09:30:29;8.90;99.90
24410;DHT22;12543;53.364;-1.504;2023-04-24T09:35:42;8.80;99.90
24410;DHT22;12543;53.364;-1.504;2023-04-24T09:38:09;8.90;99.90
24410;DHT22;12543;53.364;-1.504;2023-04-24T09:40:37;8.80;99.90
24410;DHT22;12543;53.364;-1.504;2023-04-24T09:43:10;8.90;99.90
24410;DHT22;12543;53.364;-1.504;2023-04-24T09:45:37;8.90;99.90
24410;DHT22;12543;53.364;-1.504;2023-04-24T09:48:05;9.00;99.90
24410;DHT22;12543;53.364;-1.504;2023-04-24T09:50:33;9.10;99.90
24410;DHT22;12543;53.364;-1.504;2023-04-24T09:53:01;9.20;99.90
24410;DHT22;12543;53.364;-1.504;2023-04-24T09:55:29;9.30;99.90
24410;DHT22;12543;53.364;-1.504;2023-04-24T09:58:00;9.40;99.90
24410;DHT22;12543;53.364;-1.504;2023-04-24T10:00:28;9.60;99.90
24410;DHT22;12543;53.364;-1.504;2023-04-24T10:02:59;10.00;99.90
24410;DHT22;12543;53.364;-1.504;2023-04-24T10:05:30;10.50;99.90
24410;DHT22;12543;53.364;-1.504;2023-04-24T10:07:59;11.20;99.90
24410;DHT22;12543;53.364;-1.504;2023-04-24T10:10:26;11.60;99.90
24410;DHT22;12543;53.364;-1.504;2023-04-24T10:12:54;12.10;99.90
24410;DHT22;12543;53.364;-1.504;2023-04-24T10:15:22;12.40;99.90
24410;DHT22;12543;53.364;-1.504;2023-04-24T10:17:49;12.60;99.90
24410;DHT22;12543;53.364;-1.504;2023-04-24T10:20:24;12.70;99.90
24410;DHT22;12543;53.364;-1.504;2023-04-24T10:22:52;12.80;99.90
24410;DHT22;12543;53.364;-1.504;2023-04-24T10:25:20;12.80;99.90
24410;DHT22;12543;53.364;-1.504;2023-04-24T10:27:48;12.70;99.90
24410;DHT22;12543;53.364;-1.504;2023-04-24T10:30:15;12.80;99.90
24410;DHT22;12543;53.364;-1.504;2023-04-24T10:32:43;12.90;99.90
24410;DHT22;12543;53.364;-1.504;2023-04-24T10:35:12;13.10;99.90
24410;DHT22;12543;53.364;-1.504;2023-04-24T10:37:40;13.20;99.90
24410;DHT22;12543;53.364;-1.504;2023-04-24T10:40:09;13.40;99.90
24410;DHT22;12543;53.364;-1.504;2023-04-24T10:42:40;13.60;99.90
24410;DHT22;12543;53.364;-1.504;2023-04-24T10:45:16;13.90;99.90
24410;DHT22;12543;53.364;-1.504;2023-04-24T10:47:50;14.20;99.90
24410;DHT22;12543;53.364;-1.504;2023-04-24T10:50:17;14.60;99.90
24410;DHT22;12543;53.364;-1.504;2023-04-24T10:52:45;14.90;99.90
24410;DHT22;12543;53.364;-1.504;2023-04-24T10:55:13;15.10;99.90
24410;DHT22;12543;53.364;-1.504;2023-04-24T10:58:00;15.10;99.90
24410;DHT22;12543;53.364;-1.504;2023-04-24T11:00:27;15.10;99.90
24410;DHT22;12543;53.364;-1.504;2023-04-24T11:02:54;14.80;99.90
24410;DHT22;12543;53.364;-1.504;2023-04-24T11:05:22;14.60;99.90
24410;DHT22;12543;53.364;-1.504;2023-04-24T11:10:38;14.40;99.90
24410;DHT22;12543;53.364;-1.504;2023-04-24T11:13:05;14.40;99.90
24410;DHT22;12543;53.364;-1.504;2023-04-24T11:15:33;14.30;99.90
24410;DHT22;12543;53.364;-1.504;2023-04-24T11:18:00;14.20;99.90
24410;DHT22;12543;53.364;-1.504;2023-04-24T11:20:27;14.10;99.90
24410;DHT22;12543;53.364;-1.504;2023-04-24T11:22:57;13.90;99.90
24410;DHT22;12543;53.364;-1.504;2023-04-24T11:25:30;13.70;99.90
24410;DHT22;12543;53.364;-1.504;2023-04-24T11:28:03;13.40;99.90
24410;DHT22;12543;53.364;-1.504;2023-04-24T11:30:31;13.20;99.90
24410;DHT22;12543;53.364;-1.504;2023-04-24T11:33:03;13.00;99.90
24410;DHT22;12543;53.364;-1.504;2023-04-24T11:35:34;12.80;99.90
24410;DHT22;12543;53.364;-1.504;2023-04-24T11:38:03;12.60;99.90
24410;DHT22;12543;53.364;-1.504;2023-04-24T11:40:34;12.50;99.90
24410;DHT22;12543;53.364;-1.504;2023-04-24T11:43:04;12.30;99.90
24410;DHT22;12543;53.364;-1.504;2023-04-24T11:45:33;12.20;99.90
24410;DHT22;12543;53.364;-1.504;2023-04-24T11:48:02;12.10;99.90
24410;DHT22;12543;53.364;-1.504;2023-04-24T11:50:30;12.10;99.90
24410;DHT22;12543;53.364;-1.504;2023-04-24T11:52:57;11.90;99.90
24410;DHT22;12543;53.364;-1.504;2023-04-24T11:55:25;11.80;99.90
24410;DHT22;12543;53.364;-1.504;2023-04-24T11:57:55;11.70;99.90
24410;DHT22;12543;53.364;-1.504;2023-04-24T12:02:50;11.50;99.90
24410;DHT22;12543;53.364;-1.504;2023-04-24T12:05:22;11.40;99.90
24410;DHT22;12543;53.364;-1.504;2023-04-24T12:07:50;11.40;99.90
24410;DHT22;12543;53.364;-1.504;2023-04-24T12:10:23;11.30;99.90
24410;DHT22;12543;53.364;-1.504;2023-04-24T12:12:51;11.20;99.90
24410;DHT22;12543;53.364;-1.504;2023-04-24T12:15:19;11.20;99.90
24410;DHT22;12543;53.364;-1.504;2023-04-24T12:17:46;11.10;99.90
24410;DHT22;12543;53.364;-1.504;2023-04-24T12:20:13;11.10;99.90
24410;DHT22;12543;53.364;-1.504;2023-04-24T12:22:44;11.10;99.90
24410;DHT22;12543;53.364;-1.504;2023-04-24T12:25:15;11.00;99.90
24410;DHT22;12543;53.364;-1.504;2023-04-24T12:27:43;11.00;99.90
24410;DHT22;12543;53.364;-1.504;2023-04-24T12:30:10;11.00;99.90
24410;DHT22;12543;53.364;-1.504;2023-04-24T12:33:21;11.10;99.90
24410;DHT22;12543;53.364;-1.504;2023-04-24T12:35:29;11.20;99.90
24410;DHT22;12543;53.364;-1.504;2023-04-24T12:40:35;11.40;99.90
24410;DHT22;12543;53.364;-1.504;2023-04-24T12:43:02;11.40;99.90
24410;DHT22;12543;53.364;-1.504;2023-04-24T12:45:39;11.40;99.90
24410;DHT22;12543;53.364;-1.504;2023-04-24T12:48:06;11.30;99.90
24410;DHT22;12543;53.364;-1.504;2023-04-24T12:50:33;11.20;99.90
24410;DHT22;12543;53.364;-1.504;2023-04-24T12:53:00;11.20;99.90
24410;DHT22;12543;53.364;-1.504;2023-04-24T12:55:27;11.10;99.90
24410;DHT22;12543;53.364;-1.504;2023-04-24T12:57:54;11.10;99.90
24410;DHT22;12543;53.364;-1.504;2023-04-24T13:00:22;11.00;99.90
24410;DHT22;12543;53.364;-1.504;2023-04-24T13:02:49;11.00;99.90
24410;DHT22;12543;53.364;-1.504;2023-04-24T13:05:16;11.00;99.90
24410;DHT22;12543;53.364;-1.504;2023-04-24T13:07:43;11.00;99.90
24410;DHT22;12543;53.364;-1.504;2023-04-24T13:10:13;10.90;99.90
24410;DHT22;12543;53.364;-1.504;2023-04-24T13:12:40;11.00;99.90
24410;DHT22;12543;53.364;-1.504;2023-04-24T13:15:07;11.10;99.90
24410;DHT22;12543;53.364;-1.504;2023-04-24T13:17:34;11.20;99.90
24410;DHT22;12543;53.364;-1.504;2023-04-24T13:20:01;11.20;99.90
24410;DHT22;12543;53.364;-1.504;2023-04-24T13:22:29;11.30;99.90
24410;DHT22;12543;53.364;-1.504;2023-04-24T13:27:23;11.30;99.90
24410;DHT22;12543;53.364;-1.504;2023-04-24T13:29:50;11.20;99.90
24410;DHT22;12543;53.364;-1.504;2023-04-24T13:32:18;11.20;99.90
24410;DHT22;12543;53.364;-1.504;2023-04-24T13:34:45;11.20;99.90
24410;DHT22;12543;53.364;-1.504;2023-04-24T13:37:12;11.20;99.90
24410;DHT22;12543;53.364;-1.504;2023-04-24T13:39:40;11.10;99.90
24410;DHT22;12543;53.364;-1.504;2023-04-24T13:42:08;11.00;99.90
24410;DHT22;12543;53.364;-1.504;2023-04-24T13:44:35;10.90;99.90
24410;DHT22;12543;53.364;-1.504;2023-04-24T13:47:02;10.80;99.90
24410;DHT22;12543;53.364;-1.504;2023-04-24T13:49:29;10.80;99.90
24410;DHT22;12543;53.364;-1.504;2023-04-24T13:51:56;10.80;99.90
24410;DHT22;12543;53.364;-1.504;2023-04-24T13:54:23;10.70;99.90
24410;DHT22;12543;53.364;-1.504;2023-04-24T13:56:53;10.70;99.90
24410;DHT22;12543;53.364;-1.504;2023-04-24T13:59:20;10.60;99.90
24410;DHT22;12543;53.364;-1.504;2023-04-24T14:01:48;10.50;99.90
24410;DHT22;12543;53.364;-1.504;2023-04-24T14:04:21;10.50;99.90
24410;DHT22;12543;53.364;-1.504;2023-04-24T14:06:53;10.40;99.90
24410;DHT22;12543;53.364;-1.504;2023-04-24T14:09:20;10.30;99.90
24410;DHT22;12543;53.364;-1.504;2023-04-24T14:11:47;10.30;99.90
24410;DHT22;12543;53.364;-1.504;2023-04-24T14:14:14;10.20;99.90
24410;DHT22;12543;53.364;-1.504;2023-04-24T14:16:41;10.10;99.90
24410;DHT22;12543;53.364;-1.504;2023-04-24T14:19:08;10.00;99.90
24410;DHT22;12543;53.364;-1.504;2023-04-24T14:21:35;9.80;99.90
24410;DHT22;12543;53.364;-1.504;2023-04-24T14:24:02;9.70;99.90
24410;DHT22;12543;53.364;-1.504;2023-04-24T14:26:29;9.70;99.90
24410;DHT22;12543;53.364;-1.504;2023-04-24T14:28:56;9.60;99.90
24410;DHT22;12543;53.364;-1.504;2023-04-24T14:31:40;9.60;99.90
24410;DHT22;12543;53.364;-1.504;2023-04-24T14:34:07;9.60;99.90
24410;DHT22;12543;53.364;-1.504;2023-04-24T14:36:34;9.60;99.90
24410;DHT22;12543;53.364;-1.504;2023-04-24T14:39:01;9.60;99.90
24410;DHT22;12543;53.364;-1.504;2023-04-24T14:41:32;9.60;99.90
24410;DHT22;12543;53.364;-1.504;2023-04-24T14:44:03;9.60;99.90
24410;DHT22;12543;53.364;-1.504;2023-04-24T14:46:30;9.60;99.90
24410;DHT22;12543;53.364;-1.504;2023-04-24T14:48:58;9.60;99.90
24410;DHT22;12543;53.364;-1.504;2023-04-24T14:51:25;9.50;99.90
24410;DHT22;12543;53.364;-1.504;2023-04-24T14:53:52;9.60;99.90
24410;DHT22;12543;53.364;-1.504;2023-04-24T14:56:19;9.50;99.90
24410;DHT22;12543;53.364;-1.504;2023-04-24T14:58:46;9.50;99.90
24410;DHT22;12543;53.364;-1.504;2023-04-24T15:01:13;9.50;99.90
24410;DHT22;12543;53.364;-1.504;2023-04-24T15:03:43;9.50;99.90
24410;DHT22;12543;53.364;-1.504;2023-04-24T15:06:11;9.40;99.90
24410;DHT22;12543;53.364;-1.504;2023-04-24T15:08:38;9.50;99.90
24410;DHT22;12543;53.364;-1.504;2023-04-24T15:11:05;9.50;99.90
24410;DHT22;12543;53.364;-1.504;2023-04-24T15:13:32;9.40;99.90
24410;DHT22;12543;53.364;-1.504;2023-04-24T15:15:59;9.40;99.90
24410;DHT22;12543;53.364;-1.504;2023-04-24T15:18:26;9.40;99.90
24410;DHT22;12543;53.364;-1.504;2023-04-24T15:20:54;9.40;99.90
24410;DHT22;12543;53.364;-1.504;2023-04-24T15:23:22;9.50;99.90
24410;DHT22;12543;53.364;-1.504;2023-04-24T15:25:48;9.50;99.90
24410;DHT22;12543;53.364;-1.504;2023-04-24T15:28:16;9.50;99.90
24410;DHT22;12543;53.364;-1.504;2023-04-24T15:30:44;9.50;99.90
24410;DHT22;12543;53.364;-1.504;2023-04-24T15:33:11;9.50;99.90
24410;DHT22;12543;53.364;-1.504;2023-04-24T15:35:39;9.60;99.90
24410;DHT22;12543;53.364;-1.504;2023-04-24T15:38:07;9.60;99.90
24410;DHT22;12543;53.364;-1.504;2023-04-24T15:40:34;9.60;99.90
24410;DHT22;12543;53.364;-1.504;2023-04-24T15:43:01;9.60;99.90
24410;DHT22;12543;53.364;-1.504;2023-04-24T15:45:29;9.60;99.90
24410;DHT22;12543;53.364;-1.504;2023-04-24T15:47:56;9.60;99.90
24410;DHT22;12543;53.364;-1.504;2023-04-24T15:50:24;9.50;99.90
24410;DHT22;12543;53.364;-1.504;2023-04-24T15:52:51;9.50;99.90